Time;durP1;ratioP1;P1;durP2;ratioP2;P2;SDS_P1;SDS_P2;PMS_P1;PMS_P2;Temp;Humidity;BMP_temperature;BMP_pressure;BME280_temperature;BME280_humidity;BME280_pressure;Samples;Min_cycle;Max_cycle;Signal;HPM_P1;HPM_P2
2021/01/15 05:56:04;;;;;;;14.10;6.53;;;;;;;-9.81;80.64;97903.30;1717873;80;21196;-54
2021/01/15 05:58:33;;;;;;;17.10;7.72;;;;;;;-9.86;80.13;97914.27;1757390;81;21158;-54
2021/01/15 06:01:02;;;;;;;17.40;7.17;;;;;;;-9.94;79.80;97890.56;1733170;80;21774;-53
2021/01/15 06:03:32;;;;;;;16.03;7.27;;;;;;;-10.00;80.44;97910.11;1760924;80;21126;-59
2021/01/15 06:06:01;;;;;;;17.03;7.10;;;;;;;-10.02;80.89;97905.11;1750255;81;21174;-50
2021/01/15 06:08:43;;;;;;;17.17;6.43;;;;;;;-10.03;80.84;97907.77;1722467;81;21161;-58
2021/01/15 06:11:23;;;;;;;20.13;8.07;;;;;;;-10.05;80.49;97924.42;1757252;82;21209;-51
2021/01/15 06:13:52;;;;;;;19.07;8.00;;;;;;;-10.07;80.22;97927.55;1759101;80;21362;-52
2021/01/15 06:16:21;;;;;;;23.40;8.30;;;;;;;-10.06;80.10;97914.34;1756131;80;21195;-51
2021/01/15 06:19:03;;;;;;;16.83;6.93;;;;;;;-10.07;79.73;97922.45;1749429;81;21304;-60
2021/01/15 06:21:35;;;;;;;20.70;7.67;;;;;;;-10.06;80.14;97935.55;1723997;81;21150;-56
2021/01/15 06:24:09;;;;;;;18.43;7.67;;;;;;;-10.03;79.80;97937.09;1756231;81;21159;-57
2021/01/15 06:26:39;;;;;;;19.10;7.83;;;;;;;-10.04;79.49;97947.72;1756069;81;21196;-51
2021/01/15 06:29:12;;;;;;;18.87;8.47;;;;;;;-10.05;79.29;97951.66;1753246;82;22375;-50
2021/01/15 06:31:50;;;;;;;16.13;6.97;;;;;;;-10.06;79.06;97950.84;1754031;82;21165;-57
2021/01/15 06:34:19;;;;;;;20.23;7.93;;;;;;;-10.09;79.12;97952.77;1750077;81;21597;-51
2021/01/15 06:36:51;;;;;;;19.47;8.10;;;;;;;-10.12;79.26;97953.80;1756903;81;21331;-60
2021/01/15 06:39:21;;;;;;;17.13;7.80;;;;;;;-10.13;79.33;97966.66;1756734;82;21205;-54
2021/01/15 06:42:04;;;;;;;18.50;7.92;;;;;;;-10.14;79.56;97967.11;1756718;80;21212;-49
2021/01/15 06:44:33;;;;;;;20.53;7.33;;;;;;;-10.12;79.39;97967.81;1756718;81;21198;-58
2021/01/15 06:47:04;;;;;;;17.60;7.17;;;;;;;-10.12;79.44;97986.94;1756483;82;21192;-56
2021/01/15 06:49:34;;;;;;;22.15;8.40;;;;;;;-10.08;79.45;97983.73;1695112;82;21190;-55
2021/01/15 06:52:05;;;;;;;19.02;7.70;;;;;;;-10.04;79.41;97981.33;1691822;84;21170;-55
2021/01/15 06:54:36;;;;;;;20.83;8.37;;;;;;;-10.03;79.36;97982.98;1710461;81;21166;-61
2021/01/15 06:57:20;;;;;;;20.87;7.93;;;;;;;-10.03;79.19;97981.71;1721940;82;21225;-56
2021/01/15 06:59:55;;;;;;;19.67;7.87;;;;;;;-9.99;79.63;97985.20;1693811;81;21193;-57
2021/01/15 07:02:56;;;;;;;16.77;7.40;;;;;;;-9.89;79.93;97996.91;1732434;82;21334;-55
2021/01/15 07:05:31;;;;;;;20.07;7.80;;;;;;;-9.77;80.23;97992.73;1736149;82;21142;-56
2021/01/15 07:08:02;;;;;;;24.90;11.90;;;;;;;-9.67;80.59;97987.38;1732144;82;21158;-56
2021/01/15 07:10:31;;;;;;;20.62;8.90;;;;;;;-9.58;81.13;98011.44;1753425;82;21119;-56
2021/01/15 07:13:05;;;;;;;18.73;8.40;;;;;;;-9.49;81.15;98010.38;1722811;82;21226;-58
2021/01/15 07:15:43;;;;;;;20.03;8.33;;;;;;;-9.41;81.35;98010.66;1753383;82;21178;-57
2021/01/15 07:18:26;;;;;;;17.93;8.20;;;;;;;-9.31;80.88;98017.71;1752779;81;21159;-57
2021/01/15 07:20:58;;;;;;;22.30;9.73;;;;;;;-9.27;80.52;98006.38;1720921;83;21206;-62
2021/01/15 07:23:53;;;;;;;18.50;8.33;;;;;;;-9.19;80.06;98004.11;1717628;82;21179;-53
2021/01/15 07:26:27;;;;;;;20.60;8.60;;;;;;;-9.15;79.57;98016.56;1751835;82;21199;-54
2021/01/15 07:28:59;;;;;;;18.17;7.90;;;;;;;-9.17;79.13;98017.14;1751726;82;21607;-55
2021/01/15 07:31:28;;;;;;;;;;;;;;;-9.17;79.01;98031.19;1754419;82;21207;-59
2021/01/15 07:34:00;;;;;;;18.03;7.57;;;;;;;-9.15;79.12;98025.96;1693256;81;20225;-57
2021/01/15 07:36:37;;;;;;;22.37;8.83;;;;;;;-9.08;78.14;98019.51;1689862;85;21146;-52
2021/01/15 07:39:16;;;;;;;18.40;7.50;;;;;;;-9.04;78.10;98022.68;1748483;82;21219;-62
2021/01/15 07:41:52;;;;;;;20.90;8.60;;;;;;;-8.98;78.00;98023.53;1751907;82;21227;-62
2021/01/15 07:44:35;;;;;;;23.30;8.70;;;;;;;-9.00;77.62;98023.64;1751780;82;21227;-57
2021/01/15 07:47:11;;;;;;;18.13;7.87;;;;;;;-8.93;78.01;98039.36;1745233;82;21167;-56
2021/01/15 07:49:44;;;;;;;21.90;8.40;;;;;;;-8.86;77.10;98029.06;1753342;81;21325;-56
2021/01/15 07:52:16;;;;;;;26.03;9.73;;;;;;;-8.85;76.99;98028.95;1716832;82;21179;-57
2021/01/15 07:54:57;;;;;;;27.17;10.30;;;;;;;-8.81;77.24;98037.70;1752532;82;21207;-60
2021/01/15 07:57:23;;;;;;;26.80;12.87;;;;;;;-8.79;76.64;98030.27;1752970;82;21155;-55
2021/01/15 07:59:53;;;;;;;26.63;11.43;;;;;;;-8.73;77.36;98041.80;1719892;83;21290;-58
2021/01/15 08:02:24;;;;;;;17.13;7.87;;;;;;;-8.56;76.86;98040.97;1720615;81;21275;-56
2021/01/15 08:05:08;;;;;;;26.90;10.83;;;;;;;-8.50;76.23;98042.27;1749437;81;21217;-58
2021/01/15 08:07:37;;;;;;;21.03;9.27;;;;;;;-8.41;76.36;98055.70;1716409;83;21136;-60
2021/01/15 08:10:09;;;;;;;22.80;9.60;;;;;;;-8.00;77.75;98065.14;1715594;84;21325;-56
2021/01/15 08:12:42;;;;;;;22.70;9.10;;;;;;;-8.00;77.75;98065.14;1717222;82;21191;-54
2021/01/15 08:15:31;;;;;;;23.85;10.15;;;;;;;-7.69;77.20;98066.27;1742721;81;21697;-54
2021/01/15 08:18:06;;;;;;;19.77;8.90;;;;;;;-7.39;77.01;98064.02;1798606;77;23170;-54
2021/01/15 08:20:38;;;;;;;22.87;9.57;;;;;;;-7.21;76.99;98073.35;1797598;79;21193;-57
2021/01/15 08:23:07;;;;;;;16.53;7.27;;;;;;;-7.03;75.49;98079.64;1702114;82;21678;-58
2021/01/15 08:25:39;;;;;;;16.77;7.00;;;;;;;-6.95;74.25;98074.73;1632722;85;21201;-59
2021/01/15 08:28:09;;;;;;;14.87;6.77;;;;;;;-6.96;73.88;98074.86;1738811;81;21778;-54
2021/01/15 08:30:39;;;;;;;16.77;8.00;;;;;;;-7.04;73.55;98075.45;1747306;81;21198;-63
2021/01/15 08:33:17;;;;;;;17.83;8.13;;;;;;;-7.06;72.83;98079.05;1741770;82;21218;-58
2021/01/15 08:35:57;;;;;;;19.63;7.77;;;;;;;-7.09;72.43;98085.70;1707577;84;21217;-53
2021/01/15 08:38:35;;;;;;;17.50;7.97;;;;;;;-7.20;72.30;98083.13;1712250;84;22166;-58
2021/01/15 08:41:24;;;;;;;17.63;7.57;;;;;;;-7.24;72.17;98096.62;1712155;84;21190;-54
2021/01/15 08:43:54;;;;;;;20.10;9.00;;;;;;;-7.36;71.92;98080.89;1714215;82;21210;-53
2021/01/15 08:46:25;;;;;;;18.90;7.42;;;;;;;-7.31;71.70;98082.64;1725754;83;21598;-51
2021/01/15 08:48:54;;;;;;;20.68;7.80;;;;;;;-7.33;70.27;98080.67;1699085;83;21170;-57
2021/01/15 08:51:25;;;;;;;20.40;7.70;;;;;;;-7.40;70.16;98075.17;1726307;82;21575;-55
2021/01/15 08:54:07;;;;;;;20.40;8.35;;;;;;;-7.49;69.05;98081.80;1736790;82;21558;-55
2021/01/15 08:56:47;;;;;;;17.20;7.23;;;;;;;-7.59;69.80;98088.98;1705398;83;21390;-54
2021/01/15 08:59:27;;;;;;;19.77;8.10;;;;;;;-7.61;69.41;98085.27;1694571;84;21546;-55
2021/01/15 09:02:03;;;;;;;17.52;7.70;;;;;;;-7.65;70.08;98084.32;1718322;83;21170;-54
2021/01/15 09:04:34;;;;;;;17.47;7.40;;;;;;;-7.60;70.13;98089.92;1723175;83;21201;-55
2021/01/15 09:07:07;;;;;;;19.80;6.03;;;;;;;-7.49;70.19;98093.79;1703796;84;21181;-58
2021/01/15 09:09:36;;;;;;;15.83;6.57;;;;;;;-7.46;68.92;98094.02;1727547;83;21183;-62
2021/01/15 09:12:07;;;;;;;19.60;8.67;;;;;;;-7.58;69.56;98095.27;1727895;83;21167;-61
2021/01/15 09:14:41;;;;;;;15.53;6.87;;;;;;;-7.67;69.77;98085.72;1723945;83;21231;-56
2021/01/15 09:17:12;;;;;;;15.53;6.47;;;;;;;-7.70;71.78;98106.88;1716464;83;21193;-53
2021/01/15 09:19:41;;;;;;;13.33;6.40;;;;;;;-7.45;72.47;98116.13;1753726;81;21186;-58
2021/01/15 09:28:08;;;;;;;17.97;7.17;;;;;;;-6.59;71.49;98106.66;1640611;85;21187;-52
2021/01/15 09:33:48;;;;;;;14.73;6.47;;;;;;;-6.67;70.51;98112.83;1702538;81;21212;-49
2021/01/15 09:36:27;;;;;;;17.30;7.87;;;;;;;-6.70;70.91;98107.48;1708127;83;21212;-50
2021/01/15 09:38:57;;;;;;;14.90;7.00;;;;;;;-6.62;70.67;98107.70;1703495;83;21585;-52
2021/01/15 09:41:26;;;;;;;16.07;6.73;;;;;;;-6.52;70.75;98104.78;1693218;84;21186;-57
2021/01/15 09:43:58;;;;;;;16.73;6.77;;;;;;;-6.40;70.03;98107.33;1695110;84;21421;-52
2021/01/15 09:46:29;;;;;;;15.70;6.93;;;;;;;-6.44;69.62;98103.70;1711376;83;21578;-51
2021/01/15 09:48:59;;;;;;;15.63;7.55;;;;;;;-6.48;70.00;98101.49;1682569;84;21315;-56
2021/01/15 09:51:35;;;;;;;17.43;7.07;;;;;;;-6.42;69.76;98103.61;1680123;83;21336;-57
2021/01/15 09:54:07;;;;;;;14.20;6.67;;;;;;;-6.31;70.25;98101.46;1703763;84;21178;-57
2021/01/15 09:56:40;;;;;;;16.83;6.73;;;;;;;-6.20;69.23;98113.80;1730385;82;21324;-55
2021/01/15 09:59:15;;;;;;;13.20;6.57;;;;;;;-6.18;68.25;98111.13;1708553;83;21320;-53
2021/01/15 10:01:46;;;;;;;14.73;6.37;;;;;;;-6.29;68.72;98114.53;1708036;83;21163;-63
2021/01/15 10:04:16;;;;;;;14.80;6.10;;;;;;;-6.24;68.81;98111.14;1715454;83;21219;-58
2021/01/15 10:06:48;;;;;;;14.95;6.72;;;;;;;-6.13;68.49;98106.45;1703265;83;21341;-58
2021/01/15 10:09:21;;;;;;;17.87;6.77;;;;;;;-6.05;68.16;98107.94;1669245;85;21404;-58
2021/01/15 10:11:53;;;;;;;14.97;6.33;;;;;;;-6.05;67.50;98106.66;1699685;83;21656;-60
2021/01/15 10:14:24;;;;;;;17.13;7.33;;;;;;;-6.03;67.21;98102.20;1654163;84;21206;-58
2021/01/15 10:16:53;;;;;;;14.83;6.30;;;;;;;-5.93;66.29;98105.67;1691033;84;22269;-57
2021/01/15 10:19:23;;;;;;;15.43;5.80;;;;;;;-5.88;67.11;98107.38;1702122;84;21186;-59
2021/01/15 10:21:53;;;;;;;13.30;5.97;;;;;;;-5.73;65.48;98100.20;1705149;84;21197;-57
2021/01/15 10:24:23;;;;;;;13.97;6.80;;;;;;;-5.81;64.75;98092.77;1705437;84;21210;-57
2021/01/15 10:26:53;;;;;;;14.13;6.20;;;;;;;-5.93;65.04;98106.14;1671589;85;21304;-57
2021/01/15 10:29:24;;;;;;;16.20;6.60;;;;;;;-5.91;65.98;98090.95;1642465;87;21230;-57
2021/01/15 10:31:54;;;;;;;14.17;6.40;;;;;;;-5.94;65.96;98102.77;1647862;86;21203;-57
2021/01/15 10:34:25;;;;;;;13.30;6.33;;;;;;;-5.92;67.60;98093.18;1643547;86;21627;-61
2021/01/15 10:36:54;;;;;;;14.40;6.23;;;;;;;-5.81;65.83;98089.73;1639869;87;21258;-60
2021/01/15 10:39:24;;;;;;;14.00;6.63;;;;;;;-5.80;63.42;98106.75;1644140;85;21193;-60
2021/01/15 10:41:54;;;;;;;14.10;5.80;;;;;;;-5.96;64.02;98099.52;1630063;86;21206;-60
2021/01/15 10:44:27;;;;;;;15.03;6.87;;;;;;;-5.95;64.49;98109.31;1625817;86;21216;-53
2021/01/15 10:47:06;;;;;;;14.23;6.57;;;;;;;-6.04;63.67;98090.31;1635389;86;21609;-56
2021/01/15 10:49:38;;;;;;;13.83;6.53;;;;;;;-6.10;64.94;98095.93;1657425;86;21199;-56
2021/01/15 10:52:12;;;;;;;15.37;7.13;;;;;;;-6.01;64.97;98094.41;1649339;85;21227;-62
2021/01/15 10:54:39;;;;;;;;;;;;;;;-5.91;64.82;98090.14;1678070;84;21645;-54
2021/01/15 10:57:08;;;;;;;15.43;6.77;;;;;;;-5.92;65.23;98080.34;1674746;84;20179;-58
2021/01/15 10:59:38;;;;;;;16.53;7.23;;;;;;;-5.98;66.09;98083.41;1674716;86;21324;-60
2021/01/15 11:02:09;;;;;;;16.17;7.20;;;;;;;-5.93;66.28;98090.27;1682321;84;21212;-53
2021/01/15 11:04:38;;;;;;;16.20;6.87;;;;;;;-5.97;66.13;98084.22;1683243;84;21362;-53
2021/01/15 11:07:08;;;;;;;15.80;7.13;;;;;;;-5.96;66.26;98082.02;1674759;86;21203;-51
2021/01/15 11:09:37;;;;;;;15.60;6.73;;;;;;;-5.91;67.02;98083.25;1681136;84;21202;-58
2021/01/15 11:12:09;;;;;;;15.53;6.75;;;;;;;-5.91;64.98;98079.41;1697617;84;21333;-54
2021/01/15 11:14:38;;;;;;;17.40;7.53;;;;;;;-6.07;64.64;98066.20;1659455;85;21234;-51
2021/01/15 11:17:07;;;;;;;15.20;7.37;;;;;;;-6.22;65.72;98082.80;1671001;84;21724;-50
2021/01/15 11:19:37;;;;;;;17.60;8.03;;;;;;;-6.35;65.98;98068.03;1680032;84;21321;-49
2021/01/15 11:22:06;;;;;;;16.70;7.50;;;;;;;-6.56;66.98;98082.05;1654315;84;21215;-52
2021/01/15 11:24:36;;;;;;;16.10;7.07;;;;;;;-6.71;68.68;98079.75;1691501;84;21195;-57
2021/01/15 11:27:06;;;;;;;16.23;7.03;;;;;;;-6.67;69.63;98079.03;1680371;84;21219;-57
2021/01/15 11:29:35;;;;;;;15.77;7.13;;;;;;;-6.68;69.73;98100.48;1676618;84;21195;-54
2021/01/15 11:32:06;;;;;;;18.10;8.10;;;;;;;-6.79;70.03;98085.92;1673151;84;21171;-52
2021/01/15 11:34:40;;;;;;;20.13;7.63;;;;;;;-6.73;71.28;98091.05;1674369;84;21176;-54
2021/01/15 11:37:10;;;;;;;17.13;7.23;;;;;;;-6.59;70.57;98084.88;1681256;84;21223;-51
2021/01/15 11:39:39;;;;;;;13.93;6.07;;;;;;;-6.49;68.80;98090.89;1676843;84;22246;-56
2021/01/15 11:42:11;;;;;;;13.33;5.90;;;;;;;-6.51;67.42;98078.20;1679830;84;21634;-56
2021/01/15 11:44:42;;;;;;;12.83;5.70;;;;;;;-6.55;65.36;98072.95;1675439;85;21396;-54
2021/01/15 11:47:13;;;;;;;15.38;6.47;;;;;;;-6.68;64.26;98078.69;1675597;84;21183;-55
2021/01/15 11:49:43;;;;;;;12.87;6.83;;;;;;;-6.82;64.92;98098.98;1650348;84;22339;-55
2021/01/15 11:52:13;;;;;;;16.23;6.90;;;;;;;-6.79;66.00;98091.52;1648087;87;21280;-49
2021/01/15 11:54:42;;;;;;;16.10;6.80;;;;;;;-6.81;65.06;98087.80;1707429;84;21203;-52
2021/01/15 11:57:12;;;;;;;17.20;8.10;;;;;;;-6.98;65.20;98085.23;1680835;84;21361;-51
2021/01/15 11:59:41;;;;;;;16.87;7.87;;;;;;;-7.08;65.96;98091.16;1675299;84;21269;-62
2021/01/15 12:02:11;;;;;;;15.07;7.43;;;;;;;-7.02;66.00;98097.92;1680948;84;21642;-58
2021/01/15 12:04:41;;;;;;;20.00;8.80;;;;;;;-6.99;66.15;98093.05;1659167;84;21752;-53
2021/01/15 12:07:12;;;;;;;16.73;7.50;;;;;;;-6.95;65.39;98063.67;1673846;84;21801;-55
2021/01/15 12:09:50;;;;;;;17.63;7.47;;;;;;;-7.05;65.18;98084.55;1686194;84;21201;-51
2021/01/15 12:12:24;;;;;;;18.27;8.13;;;;;;;-7.21;65.75;98100.25;1678480;84;21171;-56
2021/01/15 12:14:55;;;;;;;17.50;7.93;;;;;;;-7.29;66.51;98091.83;1688034;84;21210;-55
2021/01/15 12:17:30;;;;;;;19.13;8.10;;;;;;;-7.32;66.98;98093.36;1663126;84;21274;-57
2021/01/15 12:20:02;;;;;;;16.83;7.60;;;;;;;-7.29;67.29;98091.02;1675223;84;21156;-59
2021/01/15 12:22:32;;;;;;;17.27;7.70;;;;;;;-7.13;66.96;98097.09;1674525;84;21335;-57
2021/01/15 12:25:08;;;;;;;16.83;7.90;;;;;;;-7.03;66.76;98098.86;1672721;84;21340;-54
2021/01/15 12:27:49;;;;;;;14.87;6.97;;;;;;;-6.98;67.07;98095.95;1665339;84;21123;-54
2021/01/15 12:30:25;;;;;;;15.03;7.10;;;;;;;-6.86;66.87;98106.55;1653735;85;21633;-57
2021/01/15 12:32:58;;;;;;;22.73;9.90;;;;;;;-6.85;65.85;98104.80;1680016;84;21359;-50
2021/01/15 12:35:28;;;;;;;24.90;10.23;;;;;;;-6.98;66.01;98104.92;1709903;83;21632;-52
2021/01/15 12:38:10;;;;;;;19.17;7.97;;;;;;;-7.00;65.08;98114.45;1717847;83;21590;-52
2021/01/15 12:40:41;;;;;;;25.57;10.20;;;;;;;-7.09;64.13;98124.13;1702227;83;21153;-55
2021/01/15 12:43:10;;;;;;;29.10;11.80;;;;;;;-7.36;63.25;98112.43;1699927;84;21311;-54
2021/01/15 12:45:47;;;;;;;20.10;8.43;;;;;;;-7.61;64.26;98121.11;1709132;84;21223;-56
2021/01/15 12:48:17;;;;;;;19.33;7.90;;;;;;;-7.75;64.75;98130.23;1701369;83;21233;-53
2021/01/15 12:50:47;;;;;;;17.07;7.80;;;;;;;-7.88;65.09;98130.77;1700140;84;21156;-50
2021/01/15 12:53:16;;;;;;;17.50;7.90;;;;;;;-8.04;65.12;98122.08;1699793;84;21189;-53
2021/01/15 12:55:46;;;;;;;23.67;9.23;;;;;;;-8.13;65.49;98145.30;1694761;83;21230;-50
2021/01/15 12:58:16;;;;;;;21.45;8.68;;;;;;;-8.17;65.78;98137.95;1699841;84;21212;-57
2021/01/15 13:00:47;;;;;;;14.83;6.70;;;;;;;-8.22;65.84;98147.69;1712046;83;21207;-51
2021/01/15 13:03:19;;;;;;;16.63;7.47;;;;;;;-8.29;65.26;98118.71;1682887;85;21531;-51
2021/01/15 13:05:50;;;;;;;15.88;7.30;;;;;;;-8.39;65.65;98149.70;1686033;85;21594;-49
2021/01/15 13:08:20;;;;;;;21.20;9.08;;;;;;;-8.44;66.03;98135.14;1685802;85;21219;-59
2021/01/15 13:10:49;;;;;;;22.43;9.50;;;;;;;-8.48;66.65;98133.73;1685188;84;21337;-55
2021/01/15 13:13:19;;;;;;;26.93;11.10;;;;;;;-8.45;66.92;98121.19;1685162;85;21218;-58
2021/01/15 13:15:50;;;;;;;21.17;9.03;;;;;;;-8.40;67.01;98119.95;1708773;83;21344;-59
2021/01/15 13:18:21;;;;;;;22.70;9.40;;;;;;;-8.35;67.64;98124.25;1695302;83;21194;-63
2021/01/15 13:20:55;;;;;;;19.90;8.97;;;;;;;-8.22;66.94;98119.09;1715240;83;21163;-54
2021/01/15 13:23:27;;;;;;;21.10;8.93;;;;;;;-8.13;66.87;98113.80;1700322;83;21217;-52
2021/01/15 13:25:58;;;;;;;17.43;8.63;;;;;;;-8.10;67.11;98128.45;1682607;85;21204;-57
2021/01/15 13:28:28;;;;;;;18.77;8.77;;;;;;;-7.98;66.93;98117.00;1685736;83;21628;-51
2021/01/15 13:30:58;;;;;;;19.80;9.63;;;;;;;-7.91;66.50;98124.14;1685974;84;21658;-57
2021/01/15 13:33:34;;;;;;;21.53;9.33;;;;;;;-7.81;66.88;98135.80;1688902;83;21184;-55
2021/01/15 13:36:08;;;;;;;19.93;9.40;;;;;;;-7.65;67.18;98127.36;1703589;83;21345;-55
2021/01/15 13:38:40;;;;;;;16.80;7.55;;;;;;;-7.42;66.55;98138.95;1684543;84;21160;-56
2021/01/15 13:41:12;;;;;;;21.07;9.40;;;;;;;-7.30;66.08;98131.18;1686141;84;21198;-54
2021/01/15 13:43:42;;;;;;;23.93;11.07;;;;;;;-7.20;66.33;98140.76;1693948;84;21606;-56
2021/01/15 13:46:14;;;;;;;27.85;13.48;;;;;;;-7.14;65.84;98130.87;1680909;84;21622;-57
2021/01/15 13:48:46;;;;;;;21.50;8.77;;;;;;;-7.11;65.97;98136.21;1687126;84;21302;-57
2021/01/15 13:51:19;;;;;;;17.63;7.53;;;;;;;-7.09;66.35;98135.19;1685228;85;21308;-57
2021/01/15 13:54:00;;;;;;;19.53;9.13;;;;;;;-7.02;66.30;98140.66;1697161;84;21204;-55
2021/01/15 13:56:29;;;;;;;21.47;9.17;;;;;;;-7.00;66.53;98142.16;1696933;84;21183;-59
2021/01/15 13:58:59;;;;;;;21.20;9.83;;;;;;;-6.91;66.98;98141.14;1676223;86;21738;-56
